createdAt,value
2023-11-17T04:25:17.084Z,99051.81
2023-11-17T04:28:19.797Z,99051.81
2023-11-17T04:31:22.299Z,99061.94
2023-11-17T04:34:24.859Z,99064.13
2023-11-17T04:37:27.092Z,99064.53
2023-11-17T04:40:29.641Z,99067.75
2023-11-17T04:43:31.843Z,99062.94
2023-11-17T04:46:34.329Z,99062.69
2023-11-17T04:49:37.676Z,99078.16
2023-11-17T04:52:40.963Z,99078.16
2023-11-17T04:55:45.371Z,99071.22
2023-11-17T04:58:47.900Z,99068.97
2023-11-17T05:01:50.664Z,99068.28
2023-11-17T05:04:53.547Z,99073.00
2023-11-17T05:07:57.507Z,99065.72
2023-11-17T05:11:00.875Z,99052.19
2023-11-17T05:14:03.112Z,99043.09
2023-11-17T05:17:10.768Z,99059.94
2023-11-17T05:20:14.540Z,99050.63
2023-11-17T05:23:17.685Z,99062.34
2023-11-17T05:26:20.911Z,99053.91
2023-11-17T05:29:23.567Z,99059.75
2023-11-17T05:32:27.319Z,99052.31
2023-11-17T05:35:30.185Z,99060.59
2023-11-17T05:38:33.118Z,99063.94
2023-11-17T05:41:36.297Z,99071.22
2023-11-17T05:44:38.948Z,99070.44
2023-11-17T05:47:43.380Z,99062.56
2023-11-17T05:50:45.741Z,99066.97
2023-11-17T05:53:51.403Z,99070.13
2023-11-17T05:56:55.017Z,99076.03
2023-11-17T05:59:58.519Z,99073.97
2023-11-17T06:03:01.076Z,99064.84
2023-11-17T06:06:04.033Z,99075.44
2023-11-17T06:09:13.654Z,99070.56
2023-11-17T06:12:17.520Z,99070.56
2023-11-17T06:15:27.973Z,99076.78
2023-11-17T06:18:30.481Z,99069.97
2023-11-17T06:21:33.481Z,99076.09
2023-11-17T06:24:36.308Z,99076.97
2023-11-17T06:27:40.044Z,99072.06
2023-11-17T06:30:43.924Z,99072.25
2023-11-17T06:33:46.459Z,99071.59
2023-11-17T06:36:52.001Z,99077.88
2023-11-17T06:39:56.018Z,99074.00
2023-11-17T06:43:01.422Z,99069.97
2023-11-17T06:46:08.896Z,99070.66
2023-11-17T06:49:13.796Z,99072.03
2023-11-17T06:52:16.716Z,99071.28
2023-11-17T06:55:20.617Z,99064.56
2023-11-17T06:58:23.556Z,99073.28
2023-11-17T07:01:26.705Z,99082.31
2023-11-17T07:04:31.688Z,99083.28
2023-11-17T07:07:36.332Z,99083.72
2023-11-17T07:10:39.216Z,99092.41
2023-11-17T07:13:41.840Z,99080.81
2023-11-17T07:16:46.337Z,99087.37
2023-11-17T07:19:49.857Z,99084.63
2023-11-17T07:22:52.279Z,99081.22
2023-11-17T07:25:56.406Z,99083.94
2023-11-17T07:28:58.692Z,99075.88
2023-11-17T07:32:01.414Z,99078.09
2023-11-17T07:35:04.018Z,99078.31
2023-11-17T07:38:08.715Z,99070.56
2023-11-17T07:41:13.948Z,99072.94
2023-11-17T07:44:17.210Z,99070.34
2023-11-17T07:47:24.476Z,99084.28
2023-11-17T07:50:27.725Z,99079.75
2023-11-17T07:53:30.237Z,99080.50
2023-11-17T07:56:32.819Z,99085.09
2023-11-17T07:59:35.157Z,99089.16
2023-11-17T08:02:37.744Z,99089.94
2023-11-17T08:05:40.260Z,99088.09
2023-11-17T08:08:42.603Z,99093.59
2023-11-17T08:11:45.595Z,99093.37
2023-11-17T08:14:49.035Z,99096.34
2023-11-17T08:17:51.764Z,99096.50
2023-11-17T08:20:54.308Z,99092.22
2023-11-17T08:23:56.911Z,99087.13
2023-11-17T08:27:00.264Z,99091.91
2023-11-17T08:30:08.257Z,99098.34
2023-11-17T08:33:10.501Z,99105.03
2023-11-17T08:36:13.005Z,99111.66
2023-11-17T08:39:26.803Z,99114.94
2023-11-17T08:42:30.268Z,99110.31
2023-11-17T08:45:32.510Z,99121.91
2023-11-17T08:48:40.608Z,99131.69
2023-11-17T08:51:43.969Z,99131.28
2023-11-17T08:54:47.802Z,99133.44
2023-11-17T08:57:50.171Z,99139.84
2023-11-17T09:00:55.845Z,99143.94
2023-11-17T09:03:58.472Z,99142.09
2023-11-17T09:07:01.054Z,99147.91
2023-11-17T09:10:03.451Z,99147.31
2023-11-17T09:13:06.072Z,99155.81
2023-11-17T09:16:09.293Z,99168.94
2023-11-17T09:19:12.550Z,99154.22
2023-11-17T09:22:15.661Z,99157.97
2023-11-17T09:25:19.852Z,99158.06
2023-11-17T09:28:22.153Z,99170.75
2023-11-17T09:31:24.983Z,99163.28
2023-11-17T09:34:27.313Z,99168.41
2023-11-17T09:37:30.157Z,99165.44
2023-11-17T09:40:38.052Z,99165.22
2023-11-17T09:43:44.646Z,99177.09
2023-11-17T09:47:09.107Z,99176.50
2023-11-17T09:50:12.199Z,99182.56
2023-11-17T09:53:16.041Z,99174.59
2023-11-17T09:56:19.393Z,99172.34
2023-11-17T09:59:23.506Z,99175.81
2023-11-17T10:02:29.185Z,99170.84
2023-11-17T10:05:33.658Z,99180.28
2023-11-17T10:08:39.977Z,99176.75
2023-11-17T10:11:49.970Z,99186.22
2023-11-17T10:14:53.831Z,99175.78
2023-11-17T10:18:13.885Z,99178.50
2023-11-17T10:21:17.122Z,99175.97
2023-11-17T10:24:20.127Z,99177.22
2023-11-17T10:27:23.088Z,99182.94
2023-11-17T10:30:27.352Z,99182.53
2023-11-17T10:33:31.294Z,99177.81
2023-11-17T10:37:05.633Z,99172.13
2023-11-17T10:40:13.341Z,99178.66
2023-11-17T10:43:16.977Z,99176.28
2023-11-17T10:46:23.664Z,99171.53
2023-11-17T10:49:28.233Z,99173.22
2023-11-17T10:52:32.048Z,99169.31
2023-11-17T10:55:35.589Z,99177.97
2023-11-17T10:58:38.006Z,99172.88
2023-11-17T11:01:42.011Z,99176.56
2023-11-17T11:04:47.184Z,99177.78
2023-11-17T11:07:49.939Z,99167.12
2023-11-17T11:10:58.863Z,99172.09
2023-11-17T11:14:02.879Z,99172.47
2023-11-17T11:17:06.322Z,99173.56
2023-11-17T11:20:21.756Z,99177.69
2023-11-17T11:23:27.952Z,99177.56
2023-11-17T11:26:32.965Z,99177.81
2023-11-17T11:29:40.698Z,99168.56
2023-11-17T11:32:48.109Z,99170.00
2023-11-17T11:35:53.058Z,99181.06
2023-11-17T11:38:57.270Z,99189.78
2023-11-17T11:42:01.664Z,99181.28
2023-11-17T11:45:05.928Z,99187.72
2023-11-17T11:48:09.764Z,99194.03
2023-11-17T11:51:15.739Z,99205.25
2023-11-17T11:54:19.038Z,99206.22
2023-11-17T11:57:30.318Z,99226.81
2023-11-17T12:00:35.133Z,99219.06
2023-11-17T12:03:38.000Z,99205.66
2023-11-17T12:06:50.193Z,99203.28
2023-11-17T12:09:59.645Z,99191.97
2023-11-17T12:13:02.217Z,99201.37
2023-11-17T12:16:10.324Z,99199.06
2023-11-17T12:19:14.701Z,99209.53
2023-11-17T12:22:17.529Z,99212.72
2023-11-17T12:25:20.094Z,99227.88
2023-11-17T12:28:23.714Z,99235.84
2023-11-17T12:31:26.147Z,99225.88
2023-11-17T12:34:28.850Z,99239.03
2023-11-17T12:37:31.687Z,99249.84
2023-11-17T12:40:34.423Z,99253.91
2023-11-17T12:43:39.226Z,99264.47
2023-11-17T12:46:42.488Z,99275.84
2023-11-17T12:49:55.442Z,99274.84
2023-11-17T12:56:04.643Z,99273.50
2023-11-17T12:59:07.080Z,99274.47
2023-11-17T13:02:11.104Z,99301.66
2023-11-17T13:05:14.584Z,99298.97
2023-11-17T13:08:17.023Z,99298.75
2023-11-17T13:11:24.169Z,99293.06
2023-11-17T13:14:27.919Z,99293.28
2023-11-17T13:17:31.654Z,99293.19
2023-11-17T13:20:34.546Z,99309.50
2023-11-17T13:23:38.283Z,99303.91
2023-11-17T13:26:42.876Z,99295.78
2023-11-17T13:29:46.278Z,99307.44
2023-11-17T13:32:58.174Z,99321.13
2023-11-17T13:36:03.551Z,99327.31
2023-11-17T13:39:19.501Z,99331.97
2023-11-17T13:42:22.071Z,99335.97
2023-11-17T13:45:25.976Z,99332.41
2023-11-17T13:48:33.257Z,99336.34
2023-11-17T13:51:45.032Z,99334.47
2023-11-17T13:54:49.963Z,99349.31
2023-11-17T13:57:55.591Z,99350.88
2023-11-17T14:01:02.304Z,99361.16
2023-11-17T14:04:07.527Z,99370.66
2023-11-17T14:07:13.070Z,99376.50
2023-11-17T14:10:19.356Z,99374.81
2023-11-17T14:13:22.063Z,99385.56
2023-11-17T14:16:24.840Z,99392.03
2023-11-17T14:19:28.660Z,99390.56
2023-11-17T14:22:31.525Z,99400.47
2023-11-17T14:25:34.097Z,99395.44
2023-11-17T14:28:40.143Z,99405.66
2023-11-17T14:31:44.922Z,99408.50
2023-11-17T14:34:49.128Z,99417.81
2023-11-17T14:37:54.588Z,99419.41
2023-11-17T14:40:57.800Z,99434.09
2023-11-17T14:44:04.560Z,99443.59
2023-11-17T14:47:07.202Z,99450.53
2023-11-17T14:50:15.019Z,99457.12
2023-11-17T14:53:17.682Z,99452.34
2023-11-17T14:56:20.192Z,99453.81
2023-11-17T14:59:24.436Z,99460.44
2023-11-17T15:02:26.961Z,99469.38
2023-11-17T15:05:29.434Z,99473.91
2023-11-17T15:08:32.029Z,99480.06
2023-11-17T15:11:34.755Z,99475.66
2023-11-17T15:14:37.626Z,99485.88
2023-11-17T15:17:40.272Z,99498.75
2023-11-17T15:20:43.330Z,99488.06
2023-11-17T15:23:45.880Z,99488.94
2023-11-17T15:26:55.666Z,99502.22
2023-11-17T15:29:58.267Z,99503.13
2023-11-17T15:33:00.916Z,99508.22
2023-11-17T15:36:07.137Z,99500.53
2023-11-17T15:39:18.343Z,99509.84
2023-11-17T15:42:21.124Z,99512.00
2023-11-17T15:45:24.541Z,99526.31
2023-11-17T15:48:27.941Z,99523.00
2023-11-17T15:51:33.059Z,99522.66
2023-11-17T15:54:35.570Z,99523.88
2023-11-17T15:57:37.769Z,99529.88
2023-11-17T16:00:40.229Z,99538.38
2023-11-17T16:03:43.050Z,99540.31
2023-11-17T16:06:47.738Z,99557.81
2023-11-17T16:09:52.184Z,99547.12
2023-11-17T16:12:57.813Z,99557.38
2023-11-17T16:16:00.718Z,99567.03
2023-11-17T16:19:03.955Z,99563.97
2023-11-17T16:22:06.528Z,99575.69
2023-11-17T16:25:11.875Z,99580.13
2023-11-17T16:28:14.607Z,99584.34
2023-11-17T16:31:17.445Z,99609.78
